createdAt,value
2019-01-23T00:00:42.431Z,88.94
2019-01-23T00:01:42.425Z,89.20
2019-01-23T00:02:42.409Z,89.69
2019-01-23T00:03:42.416Z,88.94
2019-01-23T00:04:42.436Z,89.05
2019-01-23T00:05:42.378Z,89.26
2019-01-23T00:06:42.372Z,89.30
2019-01-23T00:07:42.354Z,89.20
2019-01-23T00:08:42.348Z,89.40
2019-01-23T00:09:42.337Z,89.51
2019-01-23T00:10:42.360Z,89.09
2019-01-23T00:11:42.316Z,89.66
2019-01-23T00:12:42.301Z,89.83
2019-01-23T00:13:42.290Z,89.62
2019-01-23T00:14:42.281Z,89.62
2019-01-23T00:15:42.311Z,89.72
2019-01-23T00:16:42.264Z,89.66
2019-01-23T00:17:42.252Z,89.87
2019-01-23T00:18:42.241Z,89.83
2019-01-23T00:19:42.230Z,90.15
2019-01-23T00:20:42.255Z,90.15
2019-01-23T00:21:42.209Z,90.04
2019-01-23T00:22:42.194Z,90.04
2019-01-23T00:23:42.187Z,90.25
2019-01-23T00:24:42.175Z,90.25
2019-01-23T00:25:42.165Z,89.83
2019-01-23T00:26:42.215Z,90.30
2019-01-23T00:27:42.139Z,90.30
2019-01-23T00:28:42.440Z,90.30
2019-01-23T00:29:42.119Z,90.08
2019-01-23T00:30:42.107Z,90.19
2019-01-23T00:31:42.164Z,90.25
2019-01-23T00:32:42.186Z,90.19
2019-01-23T00:33:42.081Z,90.30
2019-01-23T00:34:42.069Z,90.19
2019-01-23T00:35:42.057Z,90.04
2019-01-23T00:36:42.055Z,90.04
2019-01-23T00:37:42.038Z,90.08
2019-01-23T00:38:42.050Z,90.19
2019-01-23T00:39:42.013Z,90.15
2019-01-23T00:40:42.002Z,90.19
2019-01-23T00:41:42.002Z,90.08
2019-01-23T00:42:41.980Z,90.25
2019-01-23T00:43:42.008Z,90.40
2019-01-23T00:44:41.967Z,90.19
2019-01-23T00:45:41.953Z,90.15
2019-01-23T00:46:41.937Z,90.30
2019-01-23T00:47:41.928Z,90.30
2019-01-23T00:48:41.978Z,90.19
2019-01-23T00:49:41.909Z,90.08
2019-01-23T00:50:41.899Z,90.19
2019-01-23T00:51:41.903Z,90.19
2019-01-23T00:52:41.970Z,90.40
2019-01-23T00:53:41.864Z,90.40
2019-01-23T00:54:41.940Z,90.82
2019-01-23T00:55:41.841Z,90.61
2019-01-23T00:56:41.836Z,90.61
2019-01-23T00:57:41.826Z,90.50
2019-01-23T00:58:41.814Z,90.72
2019-01-23T00:59:41.817Z,90.72
2019-01-23T01:00:41.791Z,90.72
2019-01-23T01:01:41.781Z,90.72
2019-01-23T01:02:41.772Z,90.61
2019-01-23T01:03:41.755Z,90.82
2019-01-23T01:04:41.787Z,90.61
2019-01-23T01:05:41.789Z,90.61
2019-01-23T01:06:41.723Z,90.72
2019-01-23T01:07:41.718Z,90.61
2019-01-23T01:08:41.741Z,90.72
2019-01-23T01:09:41.700Z,90.82
2019-01-23T01:10:41.726Z,90.82
2019-01-23T01:11:41.671Z,91.03
2019-01-23T01:12:41.659Z,91.03
2019-01-23T01:13:41.665Z,90.82
2019-01-23T01:14:41.695Z,90.72
2019-01-23T01:15:41.681Z,90.93
2019-01-23T01:16:41.658Z,90.82
2019-01-23T01:17:41.605Z,90.93
2019-01-23T01:18:41.602Z,90.57
2019-01-23T01:19:41.591Z,90.61
2019-01-23T01:20:41.580Z,90.72
2019-01-23T01:21:41.605Z,90.61
2019-01-23T01:22:41.601Z,90.72
2019-01-23T01:23:41.548Z,90.72
2019-01-23T01:24:41.542Z,90.61
2019-01-23T01:25:41.522Z,90.82
2019-01-23T01:26:41.531Z,90.82
2019-01-23T01:27:41.540Z,90.82
2019-01-23T01:28:41.488Z,90.82
2019-01-23T01:29:41.479Z,90.93
2019-01-23T01:30:41.473Z,90.93
2019-01-23T01:31:41.457Z,90.82
2019-01-23T01:32:41.449Z,90.93
2019-01-23T01:33:41.465Z,90.61
2019-01-23T01:34:41.425Z,90.61
2019-01-23T01:35:41.421Z,90.82
2019-01-23T01:36:41.403Z,90.72
2019-01-23T01:37:41.454Z,90.50
2019-01-23T01:38:41.383Z,90.61
2019-01-23T01:39:41.380Z,90.61
2019-01-23T01:40:41.366Z,90.67
2019-01-23T01:41:41.351Z,90.93
2019-01-23T01:42:41.391Z,90.82
2019-01-23T01:43:41.335Z,90.93
2019-01-23T01:44:41.322Z,90.82
2019-01-23T01:45:41.309Z,90.82
2019-01-23T01:46:41.297Z,90.72
2019-01-23T01:47:41.292Z,90.72
2019-01-23T01:48:41.309Z,90.93
2019-01-23T01:49:41.265Z,90.82
2019-01-23T01:50:41.297Z,90.82
2019-01-23T01:51:41.253Z,90.93
2019-01-23T01:52:41.233Z,90.93
2019-01-23T01:53:41.228Z,90.82
2019-01-23T01:54:41.215Z,90.82
2019-01-23T01:55:41.239Z,90.61
2019-01-23T01:56:41.196Z,90.61
2019-01-23T01:57:41.179Z,90.30
2019-01-23T01:58:41.169Z,90.82
2019-01-23T01:59:41.162Z,90.61
2019-01-23T02:00:41.176Z,90.72
2019-01-23T02:01:41.136Z,90.61
2019-01-23T02:02:41.130Z,90.72
2019-01-23T02:03:41.122Z,90.61
2019-01-23T02:04:41.139Z,90.61
2019-01-23T02:05:41.102Z,90.40
2019-01-23T02:06:41.133Z,90.40
2019-01-23T02:07:41.081Z,90.72
2019-01-23T02:08:41.069Z,90.72
2019-01-23T02:09:45.447Z,90.30
2019-01-23T02:10:41.047Z,90.40
2019-01-23T02:11:41.035Z,90.61
2019-01-23T02:12:41.082Z,90.61
2019-01-23T02:13:41.012Z,90.72
2019-01-23T02:14:41.003Z,90.61
2019-01-23T02:15:40.988Z,90.72
2019-01-23T02:16:40.981Z,90.61
2019-01-23T02:17:40.967Z,90.61
2019-01-23T02:18:41.013Z,90.61
2019-01-23T02:19:40.945Z,90.40
2019-01-23T02:20:40.941Z,90.50
2019-01-23T02:21:40.923Z,90.61
2019-01-23T02:22:40.912Z,90.19
2019-01-23T02:23:40.903Z,90.30
2019-01-23T02:24:40.908Z,90.19
2019-01-23T02:25:40.897Z,90.61
2019-01-23T02:26:40.873Z,90.40
2019-01-23T02:27:40.891Z,90.50
2019-01-23T02:28:40.861Z,90.30
2019-01-23T02:29:40.864Z,90.19
2019-01-23T02:30:40.828Z,90.30
2019-01-23T02:31:40.815Z,90.30
2019-01-23T02:32:40.811Z,90.50
2019-01-23T02:33:40.842Z,90.61
2019-01-23T02:34:40.823Z,90.40
2019-01-23T02:35:40.777Z,90.30
2019-01-23T02:36:40.777Z,90.19
2019-01-23T02:37:40.769Z,90.50
2019-01-23T02:38:40.741Z,90.82
2019-01-23T02:39:40.736Z,90.57
2019-01-23T02:40:40.762Z,90.50
2019-01-23T02:41:40.713Z,90.93
2019-01-23T02:42:40.729Z,90.40
2019-01-23T02:43:40.694Z,90.08
2019-01-23T02:44:40.677Z,90.30
2019-01-23T02:45:40.697Z,90.40
2019-01-23T02:46:40.657Z,90.40
2019-01-23T02:47:40.672Z,90.40
2019-01-23T02:48:40.661Z,90.19
2019-01-23T02:49:40.627Z,90.40
2019-01-23T02:50:40.657Z,90.82
2019-01-23T02:51:40.644Z,90.50
2019-01-23T02:52:40.598Z,90.61
2019-01-23T02:53:40.606Z,90.50
2019-01-23T02:54:40.576Z,90.40
2019-01-23T02:55:40.570Z,90.30
2019-01-23T02:56:40.577Z,90.19
2019-01-23T02:57:40.538Z,90.30
2019-01-23T02:58:40.534Z,90.40
2019-01-23T02:59:40.525Z,90.30
2019-01-23T03:00:40.516Z,90.19
2019-01-23T03:01:40.514Z,90.19
2019-01-23T03:02:40.489Z,90.15
2019-01-23T03:03:40.486Z,90.30
2019-01-23T03:04:40.467Z,90.19
2019-01-23T03:05:40.465Z,89.87
2019-01-23T03:06:40.478Z,90.19
2019-01-23T03:07:40.431Z,90.30
2019-01-23T03:08:40.426Z,90.19
2019-01-23T03:09:40.425Z,90.61
2019-01-23T03:10:40.406Z,90.40
2019-01-23T03:11:40.392Z,90.08
2019-01-23T03:12:40.424Z,90.30
2019-01-23T03:13:40.370Z,90.19
2019-01-23T03:14:40.359Z,90.19
2019-01-23T03:15:40.345Z,90.30
2019-01-23T03:16:40.343Z,90.61
2019-01-23T03:17:40.383Z,90.72
2019-01-23T03:18:40.322Z,90.61
2019-01-23T03:19:40.318Z,90.50
2019-01-23T03:20:40.298Z,90.40
2019-01-23T03:21:40.288Z,90.30
2019-01-23T03:22:40.272Z,90.40
2019-01-23T03:23:40.302Z,90.40
2019-01-23T03:24:40.257Z,90.40
2019-01-23T03:25:40.242Z,90.40
2019-01-23T03:26:40.247Z,90.50
2019-01-23T03:27:40.258Z,90.57
2019-01-23T03:28:40.242Z,90.50
2019-01-23T03:29:40.205Z,90.61
2019-01-23T03:30:40.189Z,90.67
2019-01-23T03:31:41.018Z,90.36
2019-01-23T03:32:40.230Z,90.30
2019-01-23T03:33:40.196Z,90.30
2019-01-23T03:34:40.167Z,90.15
2019-01-23T03:35:40.133Z,90.30
2019-01-23T03:36:40.127Z,90.50
2019-01-23T03:37:40.117Z,90.30
2019-01-23T03:38:40.106Z,90.19
2019-01-23T03:39:40.151Z,90.30
2019-01-23T03:40:40.081Z,90.61
2019-01-23T03:41:40.070Z,90.19
2019-01-23T03:42:40.058Z,90.30
2019-01-23T03:43:40.052Z,90.19
2019-01-23T03:44:40.037Z,90.30
2019-01-23T03:45:40.038Z,90.30
2019-01-23T03:46:40.015Z,90.40
2019-01-23T03:47:40.012Z,90.15
2019-01-23T03:48:39.995Z,90.19
2019-01-23T03:49:39.988Z,90.30
2019-01-23T03:50:40.003Z,90.08
2019-01-23T03:51:39.970Z,89.83
2019-01-23T03:52:39.952Z,89.72
2019-01-23T03:53:39.942Z,89.76
2019-01-23T03:54:39.973Z,89.76
2019-01-23T03:55:39.920Z,89.87
2019-01-23T03:56:39.951Z,89.87
2019-01-23T03:57:39.899Z,90.30
2019-01-23T03:58:39.893Z,89.87
2019-01-23T03:59:39.876Z,89.76
2019-01-23T04:00:39.903Z,89.76
2019-01-23T04:01:39.904Z,89.34
2019-01-23T04:02:39.847Z,89.66
2019-01-23T04:03:39.837Z,89.66
2019-01-23T04:04:39.826Z,89.76
2019-01-23T04:05:39.861Z,90.08
2019-01-23T04:06:39.803Z,89.87
2019-01-23T04:07:39.872Z,89.87
2019-01-23T04:08:39.791Z,89.23
2019-01-23T04:09:39.774Z,89.13
2019-01-23T04:10:39.760Z,89.45
2019-01-23T04:11:39.777Z,89.34
2019-01-23T04:12:39.737Z,89.40
2019-01-23T04:13:39.733Z,89.66
2019-01-23T04:14:39.720Z,89.34
2019-01-23T04:15:39.706Z,89.66
2019-01-23T04:16:39.708Z,89.76
2019-01-23T04:17:39.686Z,90.08
2019-01-23T04:18:39.677Z,89.66
2019-01-23T04:19:39.672Z,89.72
2019-01-23T04:20:39.652Z,89.87
2019-01-23T04:21:39.653Z,90.08
2019-01-23T04:22:39.636Z,89.34
2019-01-23T04:23:39.625Z,89.13
2019-01-23T04:24:39.610Z,89.23
2019-01-23T04:25:39.600Z,89.13
2019-01-23T04:26:39.630Z,89.13
2019-01-23T04:27:39.586Z,89.03
2019-01-23T04:28:47.520Z,89.03
2019-01-23T04:29:40.038Z,89.34
2019-01-23T04:30:39.546Z,89.23
2019-01-23T04:31:39.543Z,89.03
2019-01-23T04:32:39.568Z,89.23
2019-01-23T04:33:39.521Z,88.60
2019-01-23T04:34:39.506Z,89.03
2019-01-23T04:35:39.497Z,88.49
2019-01-23T04:36:39.487Z,88.60
2019-01-23T04:37:39.540Z,88.18
2019-01-23T04:38:39.459Z,88.18
2019-01-23T04:39:39.459Z,88.60
2019-01-23T04:40:39.445Z,88.92
2019-01-23T04:41:39.434Z,88.39
2019-01-23T04:42:39.433Z,88.71
2019-01-23T04:43:39.436Z,88.18
2019-01-23T04:44:39.402Z,88.49
2019-01-23T04:45:39.401Z,88.39
2019-01-23T04:46:39.376Z,88.71
2019-01-23T04:47:39.366Z,88.35
2019-01-23T04:48:39.381Z,88.18
2019-01-23T04:49:39.348Z,88.49
2019-01-23T04:50:39.352Z,88.39
2019-01-23T04:51:39.321Z,88.07
2019-01-23T04:52:39.326Z,87.65
2019-01-23T04:53:39.304Z,87.75
2019-01-23T04:54:39.290Z,87.75
2019-01-23T04:55:39.306Z,87.33
2019-01-23T04:56:39.271Z,87.33
2019-01-23T04:57:39.259Z,87.12
2019-01-23T04:58:39.245Z,87.58
2019-01-23T04:59:39.245Z,87.54
2019-01-23T05:00:39.297Z,87.69
2019-01-23T05:01:39.288Z,87.33
2019-01-23T05:02:39.203Z,87.12
2019-01-23T05:03:39.194Z,87.16
2019-01-23T05:04:39.183Z,87.37
2019-01-23T05:05:39.172Z,87.90
2019-01-23T05:06:39.210Z,86.31
2019-01-23T05:07:39.157Z,86.63
2019-01-23T05:08:39.147Z,86.63
2019-01-23T05:09:39.137Z,86.10
2019-01-23T05:10:39.126Z,86.21
2019-01-23T05:11:39.169Z,86.73
2019-01-23T05:12:39.098Z,86.41
2019-01-23T05:13:39.095Z,86.21
2019-01-23T05:14:39.082Z,86.31
2019-01-23T05:15:39.066Z,86.14
2019-01-23T05:16:39.055Z,86.46
2019-01-23T05:17:39.087Z,86.77
2019-01-23T05:18:39.048Z,86.77
2019-01-23T05:19:39.031Z,86.77
2019-01-23T05:20:39.016Z,86.77
2019-01-23T05:21:39.009Z,86.77
2019-01-23T05:22:39.024Z,86.81
2019-01-23T05:23:38.984Z,86.81
2019-01-23T05:24:38.970Z,86.77
2019-01-23T05:25:38.962Z,86.60
2019-01-23T05:26:38.948Z,87.30
2019-01-23T05:27:38.955Z,87.30
2019-01-23T05:28:38.933Z,87.09
2019-01-23T05:29:38.919Z,87.41
2019-01-23T05:30:38.908Z,86.35
2019-01-23T05:31:38.906Z,86.24
2019-01-23T05:32:38.946Z,86.46
2019-01-23T05:33:38.879Z,86.46
2019-01-23T05:34:38.868Z,86.35
2019-01-23T05:35:38.852Z,86.24
2019-01-23T05:36:38.849Z,85.93
2019-01-23T05:37:38.832Z,86.56
2019-01-23T05:38:38.847Z,86.66
2019-01-23T05:39:38.809Z,86.56
2019-01-23T05:40:38.831Z,86.35
2019-01-23T05:41:38.790Z,86.66
2019-01-23T05:42:38.778Z,86.77
2019-01-23T05:43:38.809Z,86.56
2019-01-23T05:44:38.799Z,86.92
2019-01-23T05:45:38.751Z,86.81
2019-01-23T05:46:38.741Z,86.77
2019-01-23T05:47:38.724Z,86.49
2019-01-23T05:48:38.712Z,86.39
2019-01-23T05:49:38.728Z,87.45
2019-01-23T05:50:38.763Z,87.55
2019-01-23T05:51:38.686Z,87.87
2019-01-23T05:52:38.670Z,87.77
2019-01-23T05:53:38.664Z,87.66
2019-01-23T05:54:38.661Z,87.55
2019-01-23T05:55:38.654Z,88.09
2019-01-23T05:56:38.664Z,87.24
2019-01-23T05:57:38.619Z,87.34
2019-01-23T05:58:38.609Z,87.87
2019-01-23T05:59:38.596Z,87.77
2019-01-23T06:00:38.626Z,87.91
2019-01-23T06:01:38.580Z,88.23
2019-01-23T06:02:38.563Z,88.51
2019-01-23T06:03:38.558Z,87.98
2019-01-23T06:04:38.574Z,87.98
2019-01-23T06:05:38.560Z,87.45
2019-01-23T06:06:38.520Z,87.77
2019-01-23T06:07:38.515Z,88.09
2019-01-23T06:08:38.498Z,87.87
2019-01-23T06:09:38.487Z,88.29
2019-01-23T06:10:38.478Z,88.29
2019-01-23T06:11:38.510Z,88.29
2019-01-23T06:12:38.468Z,87.45
2019-01-23T06:13:38.450Z,87.24
2019-01-23T06:14:38.438Z,86.43
2019-01-23T06:15:38.428Z,87.38
2019-01-23T06:16:38.451Z,87.81
2019-01-23T06:17:38.419Z,87.55
2019-01-23T06:18:38.392Z,87.87
2019-01-23T06:19:38.407Z,87.87
2019-01-23T06:20:38.372Z,87.91
2019-01-23T06:21:38.371Z,87.98
2019-01-23T06:22:38.377Z,88.02
2019-01-23T06:23:38.339Z,88.23
2019-01-23T06:24:38.336Z,87.55
2019-01-23T06:25:38.315Z,88.29
2019-01-23T06:26:38.314Z,88.55
2019-01-23T06:27:38.365Z,88.34
2019-01-23T06:28:38.287Z,88.55
2019-01-23T06:29:38.278Z,88.44
2019-01-23T06:30:39.006Z,87.81
2019-01-23T06:31:38.278Z,87.91
2019-01-23T06:32:38.241Z,88.02
2019-01-23T06:33:38.261Z,88.02
2019-01-23T06:34:38.256Z,87.81
2019-01-23T06:35:38.212Z,87.77
2019-01-23T06:36:38.198Z,87.77
2019-01-23T06:37:38.186Z,87.77
2019-01-23T06:38:38.203Z,88.61
2019-01-23T06:39:38.170Z,87.87
2019-01-23T06:40:38.190Z,88.09
2019-01-23T06:41:38.171Z,87.98
2019-01-23T06:42:38.153Z,87.98
2019-01-23T06:43:38.121Z,87.87
2019-01-23T06:44:38.139Z,87.87
2019-01-23T06:45:38.110Z,88.09
2019-01-23T06:46:38.098Z,88.19
2019-01-23T06:47:38.093Z,87.98
2019-01-23T06:48:38.124Z,87.98
2019-01-23T06:49:38.061Z,87.45
2019-01-23T06:50:38.100Z,87.77
2019-01-23T06:51:38.043Z,88.09
2019-01-23T06:52:38.034Z,87.87
2019-01-23T06:53:38.020Z,88.65
2019-01-23T06:54:38.002Z,88.51
2019-01-23T06:55:38.001Z,87.87
2019-01-23T06:56:37.984Z,88.29
2019-01-23T06:57:37.970Z,88.36
2019-01-23T06:58:37.963Z,88.09
2019-01-23T06:59:37.959Z,87.98
2019-01-23T07:00:37.965Z,87.77
2019-01-23T07:01:37.935Z,88.40
2019-01-23T07:02:37.916Z,88.40
2019-01-23T07:03:37.912Z,87.98
2019-01-23T07:04:37.899Z,88.09
2019-01-23T07:05:37.889Z,87.55
2019-01-23T07:06:37.916Z,87.73
2019-01-23T07:07:37.867Z,87.98
2019-01-23T07:08:37.852Z,88.29
2019-01-23T07:09:37.857Z,87.77
2019-01-23T07:10:37.837Z,88.15
2019-01-23T07:11:37.863Z,87.94
2019-01-23T07:12:37.814Z,87.87
2019-01-23T07:13:37.798Z,87.66
2019-01-23T07:14:37.788Z,87.55
2019-01-23T07:15:37.781Z,88.19
2019-01-23T07:16:37.781Z,88.29
2019-01-23T07:17:37.797Z,88.29
2019-01-23T07:18:37.743Z,88.19
2019-01-23T07:19:37.734Z,88.51
2019-01-23T07:20:37.724Z,88.19
2019-01-23T07:21:37.713Z,88.09
2019-01-23T07:22:37.746Z,87.73
2019-01-23T07:23:37.698Z,87.94
2019-01-23T07:24:37.683Z,87.55
2019-01-23T07:25:37.716Z,87.41
2019-01-23T07:26:37.667Z,87.55
2019-01-23T07:27:37.709Z,87.87
2019-01-23T07:28:37.639Z,87.77
2019-01-23T07:29:37.630Z,87.83
2019-01-23T07:30:37.658Z,88.47
2019-01-23T07:31:37.604Z,88.57
2019-01-23T07:32:37.597Z,87.77
2019-01-23T07:33:37.612Z,88.09
2019-01-23T07:34:37.575Z,87.98
2019-01-23T07:35:37.563Z,88.57
2019-01-23T07:36:37.553Z,88.26
2019-01-23T07:37:37.540Z,87.73
2019-01-23T07:38:37.545Z,87.62
2019-01-23T07:39:37.520Z,87.73
2019-01-23T07:40:37.509Z,88.57
2019-01-23T07:41:37.501Z,87.83
2019-01-23T07:42:37.492Z,88.04
2019-01-23T07:43:37.487Z,87.73
2019-01-23T07:44:37.472Z,87.83
2019-01-23T07:45:37.454Z,87.73
2019-01-23T07:46:37.461Z,87.62
2019-01-23T07:47:37.438Z,87.94
2019-01-23T07:48:37.451Z,88.04
2019-01-23T07:49:37.432Z,88.04
2019-01-23T07:50:37.401Z,87.83
2019-01-23T07:51:37.390Z,87.62
2019-01-23T07:52:37.450Z,87.94
2019-01-23T07:53:37.383Z,88.21
2019-01-23T07:54:37.363Z,87.90
2019-01-23T07:55:37.347Z,87.69
2019-01-23T07:56:37.339Z,87.69
2019-01-23T07:57:37.326Z,87.58
2019-01-23T07:58:37.324Z,87.79
2019-01-23T07:59:37.351Z,87.90
2019-01-23T08:00:37.304Z,87.58
2019-01-23T08:01:37.287Z,88.01
2019-01-23T08:02:37.281Z,87.79
2019-01-23T08:03:37.267Z,87.33
2019-01-23T08:04:37.260Z,87.65
2019-01-23T08:05:37.263Z,87.16
2019-01-23T08:06:37.231Z,87.23
2019-01-23T08:07:37.222Z,87.86
2019-01-23T08:08:37.208Z,87.65
2019-01-23T08:09:38.414Z,87.23
2019-01-23T08:10:37.195Z,87.23
2019-01-23T08:11:37.182Z,87.33
2019-01-23T08:12:37.180Z,87.01
2019-01-23T08:13:37.166Z,87.12
2019-01-23T08:14:37.157Z,87.65
2019-01-23T08:15:37.154Z,87.33
2019-01-23T08:16:37.162Z,87.12
2019-01-23T08:17:38.047Z,86.59
2019-01-23T08:18:37.101Z,86.69
2019-01-23T08:19:37.093Z,86.69
2019-01-23T08:20:37.082Z,86.16
2019-01-23T08:21:37.069Z,86.38
2019-01-23T08:22:37.138Z,86.16
2019-01-23T08:23:37.054Z,86.91
2019-01-23T08:24:37.045Z,86.27
2019-01-23T08:25:37.271Z,86.27
2019-01-23T08:26:37.016Z,86.38
2019-01-23T08:27:37.043Z,86.38
2019-01-23T08:28:37.056Z,86.59
2019-01-23T08:29:36.984Z,86.66
2019-01-23T08:30:39.290Z,86.06
2019-01-23T08:31:36.971Z,86.16
2019-01-23T08:32:36.971Z,86.23
2019-01-23T08:33:36.951Z,86.27
2019-01-23T08:34:36.948Z,85.96
2019-01-23T08:35:36.921Z,86.16
2019-01-23T08:36:36.949Z,86.13
2019-01-23T08:37:36.903Z,86.16
2019-01-23T08:38:36.892Z,86.13
2019-01-23T08:39:36.920Z,86.06
2019-01-23T08:40:36.871Z,85.85
2019-01-23T08:41:36.854Z,86.27
2019-01-23T08:42:36.850Z,86.16
2019-01-23T08:43:36.834Z,86.23
2019-01-23T08:44:36.866Z,86.27
2019-01-23T08:45:36.815Z,86.66
2019-01-23T08:46:36.810Z,86.80
2019-01-23T08:47:36.796Z,86.55
2019-01-23T08:48:36.785Z,86.44
2019-01-23T08:49:36.796Z,86.19
2019-01-23T08:50:36.759Z,86.13
2019-01-23T08:51:36.751Z,86.13
2019-01-23T08:52:36.757Z,85.98
2019-01-23T08:53:36.769Z,85.91
2019-01-23T08:54:36.736Z,86.13
2019-01-23T08:55:36.749Z,86.23
2019-01-23T08:56:36.695Z,86.13
2019-01-23T08:57:36.691Z,86.02
2019-01-23T08:58:36.677Z,86.34
2019-01-23T08:59:36.664Z,86.13
2019-01-23T09:00:36.693Z,86.09
2019-01-23T09:01:36.641Z,85.77
2019-01-23T09:02:36.631Z,86.09
2019-01-23T09:03:36.620Z,85.88
2019-01-23T09:04:36.610Z,85.77
2019-01-23T09:05:36.607Z,85.98
2019-01-23T09:06:36.648Z,85.88
2019-01-23T09:07:36.585Z,85.56
2019-01-23T09:08:37.798Z,85.35
2019-01-23T09:09:36.555Z,85.10
2019-01-23T09:10:36.543Z,85.24
2019-01-23T09:11:36.534Z,84.82
2019-01-23T09:12:36.536Z,84.78
2019-01-23T09:13:36.516Z,85.14
2019-01-23T09:14:36.506Z,84.78
2019-01-23T09:15:36.493Z,85.31
2019-01-23T09:16:36.507Z,85.10
2019-01-23T09:17:36.473Z,85.24
2019-01-23T09:18:36.460Z,85.24
2019-01-23T09:19:36.489Z,85.77
2019-01-23T09:20:36.439Z,85.31
2019-01-23T09:21:36.425Z,85.52
2019-01-23T09:22:36.437Z,85.21
2019-01-23T09:23:36.401Z,84.89
2019-01-23T09:24:36.392Z,84.11
2019-01-23T09:25:36.381Z,84.22
2019-01-23T09:26:36.373Z,84.00
2019-01-23T09:27:36.385Z,84.11
2019-01-23T09:28:36.389Z,83.69
2019-01-23T09:29:36.341Z,83.15
2019-01-23T09:30:36.332Z,83.58
2019-01-23T09:31:36.319Z,83.58
2019-01-23T09:32:36.306Z,83.58
2019-01-23T09:33:36.342Z,83.69
2019-01-23T09:34:36.288Z,83.33
2019-01-23T09:35:36.305Z,83.44
2019-01-23T09:36:36.268Z,83.33
2019-01-23T09:37:36.260Z,82.38
2019-01-23T09:38:36.239Z,82.24
2019-01-23T09:39:36.291Z,81.82
2019-01-23T09:40:36.247Z,81.29
2019-01-23T09:41:36.212Z,81.60
2019-01-23T09:42:36.195Z,81.67
2019-01-23T09:43:36.225Z,81.57
2019-01-23T09:44:36.217Z,80.90
2019-01-23T09:45:36.165Z,80.79
2019-01-23T09:46:36.166Z,80.69
2019-01-23T09:47:36.306Z,80.16
2019-01-23T09:48:36.135Z,80.12
2019-01-23T09:49:36.210Z,80.12
2019-01-23T09:50:36.115Z,80.05
2019-01-23T09:51:36.109Z,80.27
2019-01-23T09:52:36.092Z,79.74
2019-01-23T09:53:36.083Z,78.58
2019-01-23T09:54:36.067Z,79.53
2019-01-23T09:55:36.072Z,79.95
2019-01-23T09:56:36.050Z,80.37
2019-01-23T09:57:36.045Z,80.05
2019-01-23T09:58:36.027Z,80.37
2019-01-23T09:59:36.028Z,80.19
2019-01-23T10:00:36.001Z,79.99
2019-01-23T10:01:36.054Z,80.97
2019-01-23T10:02:35.981Z,80.55
2019-01-23T10:03:35.997Z,81.29
2019-01-23T10:04:35.961Z,81.08
2019-01-23T10:05:35.949Z,81.18
2019-01-23T10:06:35.939Z,80.83
2019-01-23T10:07:35.953Z,80.51
2019-01-23T10:08:35.922Z,80.16
2019-01-23T10:09:35.913Z,78.75
2019-01-23T10:10:35.923Z,78.40
2019-01-23T10:11:35.888Z,76.89
2019-01-23T10:12:35.880Z,76.65
2019-01-23T10:13:35.909Z,75.56
2019-01-23T10:14:35.851Z,75.21
2019-01-23T10:15:35.960Z,74.37
2019-01-23T10:16:35.840Z,74.47
2019-01-23T10:17:35.818Z,74.08
2019-01-23T10:18:35.834Z,74.29
2019-01-23T10:19:35.871Z,74.54
2019-01-23T10:20:35.791Z,74.47
2019-01-23T10:21:35.775Z,75.98
2019-01-23T10:22:35.767Z,76.19
2019-01-23T10:23:35.784Z,77.03
2019-01-23T10:24:36.205Z,77.34
2019-01-23T10:25:35.740Z,77.28
2019-01-23T10:26:35.719Z,76.96
2019-01-23T10:27:35.763Z,77.17
2019-01-23T10:28:35.700Z,77.38
2019-01-23T10:29:43.595Z,77.00
2019-01-23T10:30:35.676Z,75.87
2019-01-23T10:31:35.685Z,75.03
2019-01-23T10:32:35.658Z,73.74
2019-01-23T10:33:35.679Z,72.44
2019-01-23T10:34:35.648Z,72.47
2019-01-23T10:35:35.622Z,71.95
2019-01-23T10:36:35.619Z,72.50
2019-01-23T10:37:35.600Z,72.61
2019-01-23T10:38:35.636Z,73.14
2019-01-23T10:39:35.583Z,73.14
2019-01-23T10:40:35.568Z,73.24
2019-01-23T10:41:35.558Z,72.16
2019-01-23T10:42:35.544Z,72.13
2019-01-23T10:43:35.541Z,71.67
2019-01-23T10:44:35.604Z,70.94
2019-01-23T10:45:35.528Z,71.04
2019-01-23T10:46:35.509Z,71.08
2019-01-23T10:47:35.496Z,70.97
2019-01-23T10:48:38.032Z,70.86
2019-01-23T10:49:35.468Z,71.04
2019-01-23T10:50:35.500Z,71.15
2019-01-23T10:51:35.450Z,70.28
2019-01-23T10:52:35.439Z,69.26
2019-01-23T10:53:35.431Z,69.60
2019-01-23T10:54:35.418Z,70.89
2019-01-23T10:55:35.466Z,71.31
2019-01-23T10:56:35.400Z,72.27
2019-01-23T10:57:35.387Z,71.73
2019-01-23T10:58:35.385Z,72.61
2019-01-23T10:59:36.630Z,72.08
2019-01-23T11:00:35.351Z,72.75
2019-01-23T11:01:35.398Z,73.28
2019-01-23T11:02:35.331Z,73.31
2019-01-23T11:03:35.316Z,74.08
2019-01-23T11:04:35.305Z,74.50
2019-01-23T11:05:35.299Z,74.82
2019-01-23T11:06:35.286Z,74.92
2019-01-23T11:07:35.338Z,74.82
2019-01-23T11:08:35.308Z,74.57
2019-01-23T11:09:35.312Z,74.71
2019-01-23T11:10:35.243Z,75.38
2019-01-23T11:11:35.231Z,75.76
2019-01-23T11:12:35.221Z,75.56
2019-01-23T11:13:35.205Z,75.59
2019-01-23T11:14:35.198Z,75.59
2019-01-23T11:15:35.226Z,75.80
2019-01-23T11:16:35.171Z,75.80
2019-01-23T11:17:35.165Z,76.12
2019-01-23T11:18:35.150Z,75.59
2019-01-23T11:19:35.160Z,75.94
2019-01-23T11:20:35.170Z,76.32
2019-01-23T11:21:35.226Z,76.22
2019-01-23T11:22:35.112Z,75.70
2019-01-23T11:23:35.098Z,75.59
2019-01-23T11:24:35.112Z,74.29
2019-01-23T11:25:38.186Z,74.40
2019-01-23T11:26:35.081Z,74.29
2019-01-23T11:27:35.053Z,74.29
2019-01-23T11:28:35.047Z,73.76
2019-01-23T11:29:35.030Z,73.97
2019-01-23T11:30:35.048Z,73.90
2019-01-23T11:31:35.008Z,74.54
2019-01-23T11:32:35.004Z,74.74
2019-01-23T11:33:35.004Z,75.06
2019-01-23T11:34:36.648Z,75.38
2019-01-23T11:35:36.590Z,75.73
2019-01-23T11:36:34.956Z,75.59
2019-01-23T11:37:34.945Z,75.59
2019-01-23T11:38:34.935Z,75.70
2019-01-23T11:39:34.964Z,74.54
2019-01-23T11:40:34.912Z,74.22
2019-01-23T11:41:34.947Z,73.76
2019-01-23T11:42:34.891Z,73.97
2019-01-23T11:43:34.881Z,73.87
2019-01-23T11:44:34.913Z,74.08
2019-01-23T11:45:34.860Z,73.45
2019-01-23T11:46:34.853Z,73.45
2019-01-23T11:47:34.898Z,73.24
2019-01-23T11:48:35.605Z,73.24
2019-01-23T11:49:34.819Z,74.71
2019-01-23T11:50:34.969Z,74.40
2019-01-23T11:51:34.797Z,73.52
2019-01-23T11:52:34.786Z,73.66
2019-01-23T11:53:34.787Z,72.92
2019-01-23T11:54:34.760Z,73.48
2019-01-23T11:55:34.769Z,73.38
2019-01-23T11:56:34.737Z,73.58
2019-01-23T11:57:34.750Z,74.68
2019-01-23T11:58:34.729Z,74.78
2019-01-23T11:59:34.711Z,74.46
2019-01-23T12:00:34.703Z,75.94
2019-01-23T12:01:34.686Z,75.52
2019-01-23T12:02:34.678Z,76.04
2019-01-23T12:03:34.703Z,76.04
2019-01-23T12:04:34.657Z,75.31
2019-01-23T12:05:34.644Z,75.84
2019-01-23T12:06:34.628Z,74.57
2019-01-23T12:07:34.618Z,74.78
2019-01-23T12:08:34.633Z,75.31
2019-01-23T12:09:34.596Z,75.66
2019-01-23T12:10:34.627Z,75.42
2019-01-23T12:11:34.577Z,74.46
2019-01-23T12:12:34.568Z,75.10
2019-01-23T12:13:34.594Z,75.66
2019-01-23T12:14:34.608Z,75.34
2019-01-23T12:15:40.678Z,75.76
2019-01-23T12:16:35.527Z,75.45
2019-01-23T12:17:34.510Z,75.98
2019-01-23T12:18:34.520Z,76.08
2019-01-23T12:19:34.494Z,76.18
2019-01-23T12:20:34.521Z,75.73
2019-01-23T12:21:34.468Z,75.42
2019-01-23T12:22:34.456Z,75.31
2019-01-23T12:23:34.446Z,75.52
2019-01-23T12:24:34.441Z,75.66
2019-01-23T12:25:34.451Z,75.73
2019-01-23T12:26:34.419Z,76.08
2019-01-23T12:27:34.412Z,76.26
2019-01-23T12:28:34.392Z,75.76
2019-01-23T12:29:35.367Z,76.15
2019-01-23T12:30:34.413Z,76.04
2019-01-23T12:31:35.195Z,76.04
2019-01-23T12:32:34.350Z,76.04
2019-01-23T12:33:34.340Z,75.84
2019-01-23T12:34:34.336Z,75.73
2019-01-23T12:35:34.359Z,75.42
2019-01-23T12:36:35.109Z,75.62
2019-01-23T12:37:34.300Z,75.84
2019-01-23T12:38:34.289Z,75.94
2019-01-23T12:39:34.277Z,75.94
2019-01-23T12:40:34.304Z,76.82
2019-01-23T12:41:34.261Z,76.92
2019-01-23T12:42:34.241Z,76.29
2019-01-23T12:43:34.250Z,76.40
2019-01-23T12:44:34.224Z,76.50
2019-01-23T12:45:34.224Z,76.61
2019-01-23T12:46:34.242Z,76.50
2019-01-23T12:47:34.198Z,76.82
2019-01-23T12:48:34.232Z,76.61
2019-01-23T12:49:34.209Z,76.82
2019-01-23T12:50:34.160Z,76.75
2019-01-23T12:51:34.187Z,77.03
2019-01-23T12:52:34.133Z,77.14